sensor_id;sensor_type;location;lat;lon;timestamp;pressure;altitude;pressure_sealevel;temperature;humidity
32638;BME280;19045;52.268;10.506;2023-05-12T00:00:51;100661.06;;;13.68;100.00
32638;BME280;19045;52.268;10.506;2023-05-12T00:03:19;100665.34;;;13.69;100.00
32638;BME280;19045;52.268;10.506;2023-05-12T00:05:45;100665.34;;;13.69;100.00
32638;BME280;19045;52.268;10.506;2023-05-12T00:08:12;100666.16;;;13.70;100.00
32638;BME280;19045;52.268;10.506;2023-05-12T00:10:38;100665.63;;;13.68;100.00
32638;BME280;19045;52.268;10.506;2023-05-12T00:13:06;100672.09;;;13.67;100.00
32638;BME280;19045;52.268;10.506;2023-05-12T00:15:33;100661.84;;;13.64;100.00
32638;BME280;19045;52.268;10.506;2023-05-12T00:17:59;100666.16;;;13.60;100.00
32638;BME280;19045;52.268;10.506;2023-05-12T00:20:27;100676.72;;;13.61;100.00
32638;BME280;19045;52.268;10.506;2023-05-12T00:22:56;100677.25;;;13.63;100.00
32638;BME280;19045;52.268;10.506;2023-05-12T00:25:23;100683.72;;;13.67;100.00
32638;BME280;19045;52.268;10.506;2023-05-12T00:27:50;100682.91;;;13.77;100.00
32638;BME280;19045;52.268;10.506;2023-05-12T00:30:17;100687.50;;;13.61;100.00
32638;BME280;19045;52.268;10.506;2023-05-12T00:32:43;100685.88;;;13.50;100.00
32638;BME280;19045;52.268;10.506;2023-05-12T00:35:10;100682.09;;;13.56;100.00
32638;BME280;19045;52.268;10.506;2023-05-12T00:37:38;100680.78;;;13.49;100.00
32638;BME280;19045;52.268;10.506;2023-05-12T00:40:06;100681.84;;;13.37;100.00
32638;BME280;19045;52.268;10.506;2023-05-12T00:42:33;100684.78;;;13.36;100.00
32638;BME280;19045;52.268;10.506;2023-05-12T00:45:00;100686.16;;;13.49;100.00
32638;BME280;19045;52.268;10.506;2023-05-12T00:47:27;100672.09;;;13.36;100.00
32638;BME280;19045;52.268;10.506;2023-05-12T00:49:54;100677.22;;;13.23;100.00
32638;BME280;19045;52.268;10.506;2023-05-12T00:52:21;100683.72;;;13.22;100.00
32638;BME280;19045;52.268;10.506;2023-05-12T00:54:49;100689.94;;;13.22;100.00
32638;BME280;19045;52.268;10.506;2023-05-12T00:57:17;100684.78;;;13.21;100.00
32638;BME280;19045;52.268;10.506;2023-05-12T00:59:44;100684.50;;;13.17;100.00
32638;BME280;19045;52.268;10.506;2023-05-12T01:02:11;100678.03;;;13.18;100.00
32638;BME280;19045;52.268;10.506;2023-05-12T01:04:37;100689.09;;;13.22;100.00
32638;BME280;19045;52.268;10.506;2023-05-12T01:07:06;100686.69;;;13.25;100.00
32638;BME280;19045;52.268;10.506;2023-05-12T01:09:35;100691.28;;;13.25;100.00
32638;BME280;19045;52.268;10.506;2023-05-12T01:12:04;100693.94;;;13.20;100.00
32638;BME280;19045;52.268;10.506;2023-05-12T01:14:30;100693.94;;;13.20;100.00
32638;BME280;19045;52.268;10.506;2023-05-12T01:17:00;100694.75;;;13.20;100.00
32638;BME280;19045;52.268;10.506;2023-05-12T01:19:37;100702.84;;;13.20;100.00
32638;BME280;19045;52.268;10.506;2023-05-12T01:22:05;100701.22;;;13.14;100.00
32638;BME280;19045;52.268;10.506;2023-05-12T01:24:33;100709.59;;;13.18;100.00
32638;BME280;19045;52.268;10.506;2023-05-12T01:27:03;100705.84;;;13.19;100.00
32638;BME280;19045;52.268;10.506;2023-05-12T01:29:30;100706.34;;;13.16;100.00
32638;BME280;19045;52.268;10.506;2023-05-12T01:31:58;100716.06;;;13.12;100.00
32638;BME280;19045;52.268;10.506;2023-05-12T01:34:24;100714.19;;;13.12;100.00
32638;BME280;19045;52.268;10.506;2023-05-12T01:36:51;100722.28;;;13.12;100.00
32638;BME280;19045;52.268;10.506;2023-05-12T01:39:18;100721.19;;;13.23;100.00
32638;BME280;19045;52.268;10.506;2023-05-12T01:41:44;100734.88;;;13.02;100.00
32638;BME280;19045;52.268;10.506;2023-05-12T01:44:13;100745.91;;;12.95;100.00
32638;BME280;19045;52.268;10.506;2023-05-12T01:46:39;100736.16;;;12.84;100.00
32638;BME280;19045;52.268;10.506;2023-05-12T01:49:06;100741.31;;;12.85;100.00
32638;BME280;19045;52.268;10.506;2023-05-12T01:51:32;100743.97;;;12.75;100.00
32638;BME280;19045;52.268;10.506;2023-05-12T01:53:59;100749.06;;;12.77;100.00
32638;BME280;19045;52.268;10.506;2023-05-12T01:56:26;100738.56;;;12.80;100.00
32638;BME280;19045;52.268;10.506;2023-05-12T01:58:53;100745.31;;;12.83;100.00
32638;BME280;19045;52.268;10.506;2023-05-12T02:01:21;100739.94;;;12.83;100.00
32638;BME280;19045;52.268;10.506;2023-05-12T02:03:49;100741.03;;;12.82;100.00
32638;BME280;19045;52.268;10.506;2023-05-12T02:06:16;100741.03;;;12.82;100.00
32638;BME280;19045;52.268;10.506;2023-05-12T02:08:43;100744.53;;;12.82;100.00
32638;BME280;19045;52.268;10.506;2023-05-12T02:11:09;100751.53;;;12.78;100.00
32638;BME280;19045;52.268;10.506;2023-05-12T02:13:36;100747.47;;;12.76;100.00
32638;BME280;19045;52.268;10.506;2023-05-12T02:16:03;100745.56;;;12.76;100.00
32638;BME280;19045;52.268;10.506;2023-05-12T02:18:31;100748.53;;;12.80;100.00
32638;BME280;19045;52.268;10.506;2023-05-12T02:20:58;100743.69;;;12.77;100.00
32638;BME280;19045;52.268;10.506;2023-05-12T02:23:24;100734.81;;;12.81;100.00
32638;BME280;19045;52.268;10.506;2023-05-12T02:25:51;100736.16;;;12.79;100.00
32638;BME280;19045;52.268;10.506;2023-05-12T02:28:17;100738.31;;;12.82;100.00
32638;BME280;19045;52.268;10.506;2023-05-12T02:30:45;100744.53;;;12.82;100.00
32638;BME280;19045;52.268;10.506;2023-05-12T02:33:13;100749.38;;;12.80;100.00
32638;BME280;19045;52.268;10.506;2023-05-12T02:35:41;100751.25;;;12.80;100.00
32638;BME280;19045;52.268;10.506;2023-05-12T02:38:07;100736.94;;;12.79;100.00
32638;BME280;19045;52.268;10.506;2023-05-12T02:40:34;100738.84;;;12.79;100.00
32638;BME280;19045;52.268;10.506;2023-05-12T02:43:02;100730.75;;;12.74;100.00
32638;BME280;19045;52.268;10.506;2023-05-12T02:45:29;100722.94;;;12.72;100.00
32638;BME280;19045;52.268;10.506;2023-05-12T02:47:57;100731.78;;;12.68;100.00
32638;BME280;19045;52.268;10.506;2023-05-12T02:50:24;100748.75;;;12.63;100.00
32638;BME280;19045;52.268;10.506;2023-05-12T02:52:52;100725.34;;;12.69;100.00
32638;BME280;19045;52.268;10.506;2023-05-12T02:55:18;100732.03;;;12.61;100.00
32638;BME280;19045;52.268;10.506;2023-05-12T02:57:45;100733.09;;;12.55;100.00
32638;BME280;19045;52.268;10.506;2023-05-12T03:00:12;100751.94;;;12.55;100.00
32638;BME280;19045;52.268;10.506;2023-05-12T03:02:39;100736.59;;;12.61;100.00
32638;BME280;19045;52.268;10.506;2023-05-12T03:05:07;100740.91;;;12.57;100.00
32638;BME280;19045;52.268;10.506;2023-05-12T03:07:34;100753.31;;;12.58;100.00
32638;BME280;19045;52.268;10.506;2023-05-12T03:10:03;100734.44;;;12.58;100.00
32638;BME280;19045;52.268;10.506;2023-05-12T03:12:29;100740.09;;;12.56;100.00
32638;BME280;19045;52.268;10.506;2023-05-12T03:14:56;100738.47;;;12.55;100.00
32638;BME280;19045;52.268;10.506;2023-05-12T03:17:23;100743.31;;;12.53;100.00
32638;BME280;19045;52.268;10.506;2023-05-12T03:19:49;100737.91;;;12.53;100.00
32638;BME280;19045;52.268;10.506;2023-05-12T03:22:16;100734.97;;;12.55;100.00
32638;BME280;19045;52.268;10.506;2023-05-12T03:24:42;100747.38;;;12.56;100.00
32638;BME280;19045;52.268;10.506;2023-05-12T03:27:12;100745.22;;;12.63;100.00
32638;BME280;19045;52.268;10.506;2023-05-12T03:29:38;100745.22;;;12.63;100.00
32638;BME280;19045;52.268;10.506;2023-05-12T03:32:05;100764.34;;;12.56;100.00
32638;BME280;19045;52.268;10.506;2023-05-12T03:34:32;100766.53;;;12.59;100.00
32638;BME280;19045;52.268;10.506;2023-05-12T03:36:59;100767.59;;;12.63;100.00
32638;BME280;19045;52.268;10.506;2023-05-12T03:39:26;100751.44;;;12.58;100.00
32638;BME280;19045;52.268;10.506;2023-05-12T03:41:53;100763.03;;;12.59;100.00
32638;BME280;19045;52.268;10.506;2023-05-12T03:44:21;100760.31;;;12.59;100.00
32638;BME280;19045;52.268;10.506;2023-05-12T03:46:47;100774.09;;;12.62;100.00
32638;BME280;19045;52.268;10.506;2023-05-12T03:49:14;100766.53;;;12.59;100.00
32638;BME280;19045;52.268;10.506;2023-05-12T03:51:40;100762.72;;;12.55;100.00
32638;BME280;19045;52.268;10.506;2023-05-12T03:54:07;100755.75;;;12.59;100.00
32638;BME280;19045;52.268;10.506;2023-05-12T03:56:34;100760.28;;;12.54;100.00
32638;BME280;19045;52.268;10.506;2023-05-12T03:59:00;100763.56;;;12.61;100.00
32638;BME280;19045;52.268;10.506;2023-05-12T04:01:29;100766.50;;;12.54;100.00
32638;BME280;19045;52.268;10.506;2023-05-12T04:03:56;100757.34;;;12.55;100.00
32638;BME280;19045;52.268;10.506;2023-05-12T04:06:22;100773.25;;;12.57;100.00
32638;BME280;19045;52.268;10.506;2023-05-12T04:08:49;100763.03;;;12.59;100.00
32638;BME280;19045;52.268;10.506;2023-05-12T04:11:16;100764.69;;;12.70;100.00
32638;BME280;19045;52.268;10.506;2023-05-12T04:13:42;100765.19;;;12.67;100.00
32638;BME280;19045;52.268;10.506;2023-05-12T04:16:09;100772.81;;;12.75;100.00
32638;BME280;19045;52.268;10.506;2023-05-12T04:18:37;100780.84;;;12.70;100.00
32638;BME280;19045;52.268;10.506;2023-05-12T04:21:04;100782.47;;;12.71;100.00
32638;BME280;19045;52.268;10.506;2023-05-12T04:23:30;100782.53;;;12.81;100.00
32638;BME280;19045;52.268;10.506;2023-05-12T04:25:57;100790.09;;;12.84;100.00
32638;BME280;19045;52.268;10.506;2023-05-12T04:28:24;100783.06;;;12.78;100.00
32638;BME280;19045;52.268;10.506;2023-05-12T04:30:50;100785.47;;;12.79;100.00
32638;BME280;19045;52.268;10.506;2023-05-12T04:33:17;100785.22;;;12.81;100.00
32638;BME280;19045;52.268;10.506;2023-05-12T04:35:45;100786.06;;;12.86;100.00
32638;BME280;19045;52.268;10.506;2023-05-12T04:38:12;100796.59;;;12.93;100.00
32638;BME280;19045;52.268;10.506;2023-05-12T04:40:39;100795.28;;;13.01;100.00
32638;BME280;19045;52.268;10.506;2023-05-12T04:43:06;100795.28;;;13.01;100.00
32638;BME280;19045;52.268;10.506;2023-05-12T04:45:33;100794.47;;;13.00;100.00
32638;BME280;19045;52.268;10.506;2023-05-12T04:48:00;100795.81;;;12.98;100.00
32638;BME280;19045;52.268;10.506;2023-05-12T04:50:26;100801.50;;;13.06;100.00
32638;BME280;19045;52.268;10.506;2023-05-12T04:52:54;100803.94;;;13.08;100.00
32638;BME280;19045;52.268;10.506;2023-05-12T04:55:21;100810.94;;;13.04;100.00
32638;BME280;19045;52.268;10.506;2023-05-12T04:57:48;100813.41;;;13.10;100.00
32638;BME280;19045;52.268;10.506;2023-05-12T05:00:14;100812.94;;;13.23;100.00
32638;BME280;19045;52.268;10.506;2023-05-12T05:02:41;100812.41;;;13.26;100.00
32638;BME280;19045;52.268;10.506;2023-05-12T05:05:08;100815.63;;;13.23;100.00
32638;BME280;19045;52.268;10.506;2023-05-12T05:07:36;100813.25;;;13.32;100.00
32638;BME280;19045;52.268;10.506;2023-05-12T05:10:07;100806.22;;;13.36;100.00
32638;BME280;19045;52.268;10.506;2023-05-12T05:12:34;100810.84;;;13.45;100.00
32638;BME280;19045;52.268;10.506;2023-05-12T05:15:01;100810.03;;;13.45;100.00
32638;BME280;19045;52.268;10.506;2023-05-12T05:17:28;100814.88;;;13.43;100.00
32638;BME280;19045;52.268;10.506;2023-05-12T05:19:54;100807.06;;;13.41;100.00
32638;BME280;19045;52.268;10.506;2023-05-12T05:22:21;100816.25;;;13.45;100.00
32638;BME280;19045;52.268;10.506;2023-05-12T05:24:48;100815.72;;;13.49;100.00
32638;BME280;19045;52.268;10.506;2023-05-12T05:27:16;100816.25;;;13.56;100.00
32638;BME280;19045;52.268;10.506;2023-05-12T05:29:42;100813.28;;;13.57;100.00
32638;BME280;19045;52.268;10.506;2023-05-12T05:32:09;100821.66;;;13.61;100.00
32638;BME280;19045;52.268;10.506;2023-05-12T05:34:36;100823.81;;;13.69;100.00
32638;BME280;19045;52.268;10.506;2023-05-12T05:37:02;100829.50;;;13.72;100.00
32638;BME280;19045;52.268;10.506;2023-05-12T05:39:29;100823.88;;;13.84;100.00
32638;BME280;19045;52.268;10.506;2023-05-12T05:41:56;100836.81;;;13.92;100.00
32638;BME280;19045;52.268;10.506;2023-05-12T05:44:24;100828.72;;;13.97;100.00
32638;BME280;19045;52.268;10.506;2023-05-12T05:46:51;100833.06;;;14.08;100.00
32638;BME280;19045;52.268;10.506;2023-05-12T05:49:18;100837.38;;;14.14;100.00
32638;BME280;19045;52.268;10.506;2023-05-12T05:51:44;100843.88;;;14.28;100.00
32638;BME280;19045;52.268;10.506;2023-05-12T05:54:11;100843.34;;;14.31;100.00
32638;BME280;19045;52.268;10.506;2023-05-12T05:57:04;100856.34;;;14.44;99.20
32638;BME280;19045;52.268;10.506;2023-05-12T05:59:32;100841.19;;;14.43;98.04
32638;BME280;19045;52.268;10.506;2023-05-12T06:01:59;100850.38;;;14.42;95.20
32638;BME280;19045;52.268;10.506;2023-05-12T06:04:26;100857.66;;;14.42;95.29
32638;BME280;19045;52.268;10.506;2023-05-12T06:06:53;100854.69;;;14.43;95.75
32638;BME280;19045;52.268;10.506;2023-05-12T06:09:19;100851.16;;;14.53;95.46
32638;BME280;19045;52.268;10.506;2023-05-12T06:11:46;100853.63;;;14.55;95.19
32638;BME280;19045;52.268;10.506;2023-05-12T06:14:13;100862.00;;;14.58;93.90
32638;BME280;19045;52.268;10.506;2023-05-12T06:16:41;100864.66;;;14.68;93.01
32638;BME280;19045;52.268;10.506;2023-05-12T06:19:07;100865.19;;;14.65;92.25
32638;BME280;19045;52.268;10.506;2023-05-12T06:21:34;100868.16;;;14.69;91.71
32638;BME280;19045;52.268;10.506;2023-05-12T06:24:01;100870.06;;;14.68;91.26
32638;BME280;19045;52.268;10.506;2023-05-12T06:26:28;100874.66;;;14.78;91.68
32638;BME280;19045;52.268;10.506;2023-05-12T06:28:55;100873.84;;;14.87;90.97
32638;BME280;19045;52.268;10.506;2023-05-12T06:31:21;100881.09;;;15.02;89.25
32638;BME280;19045;52.268;10.506;2023-05-12T06:33:50;100884.56;;;15.13;87.95
32638;BME280;19045;52.268;10.506;2023-05-12T06:36:16;100883.75;;;15.12;88.16
32638;BME280;19045;52.268;10.506;2023-05-12T06:38:43;100883.47;;;15.19;85.85
32638;BME280;19045;52.268;10.506;2023-05-12T06:41:09;100888.56;;;15.25;85.98
32638;BME280;19045;52.268;10.506;2023-05-12T06:43:36;100896.69;;;15.30;86.48
32638;BME280;19045;52.268;10.506;2023-05-12T06:46:03;100901.50;;;15.43;86.03
32638;BME280;19045;52.268;10.506;2023-05-12T06:48:31;100893.31;;;15.64;85.64
32638;BME280;19045;52.268;10.506;2023-05-12T06:50:59;100895.63;;;15.85;84.22
32638;BME280;19045;52.268;10.506;2023-05-12T06:53:25;100888.78;;;15.98;82.76
32638;BME280;19045;52.268;10.506;2023-05-12T06:55:52;100899.22;;;16.15;82.29
32638;BME280;19045;52.268;10.506;2023-05-12T06:58:19;100890.38;;;16.38;81.85
32638;BME280;19045;52.268;10.506;2023-05-12T07:00:46;100893.78;;;16.53;80.22
32638;BME280;19045;52.268;10.506;2023-05-12T07:03:13;100900.13;;;16.73;79.13
32638;BME280;19045;52.268;10.506;2023-05-12T07:05:40;100894.66;;;16.78;76.39
32638;BME280;19045;52.268;10.506;2023-05-12T07:08:08;100895.13;;;16.85;76.60
32638;BME280;19045;52.268;10.506;2023-05-12T07:10:35;100899.53;;;17.04;76.47
32638;BME280;19045;52.268;10.506;2023-05-12T07:13:02;100898.56;;;17.19;75.47
32638;BME280;19045;52.268;10.506;2023-05-12T07:15:29;100897.09;;;17.27;74.73
32638;BME280;19045;52.268;10.506;2023-05-12T07:17:56;100893.38;;;17.41;75.11
32638;BME280;19045;52.268;10.506;2023-05-12T07:20:22;100898.69;;;17.51;74.46
32638;BME280;19045;52.268;10.506;2023-05-12T07:22:49;100894.66;;;17.73;75.27
32638;BME280;19045;52.268;10.506;2023-05-12T07:25:18;100895.50;;;17.87;74.25
32638;BME280;19045;52.268;10.506;2023-05-12T07:27:45;100894.72;;;18.05;72.58
32638;BME280;19045;52.268;10.506;2023-05-12T07:30:12;100895.88;;;18.18;71.70
32638;BME280;19045;52.268;10.506;2023-05-12T07:32:38;100899.06;;;18.06;70.53
32638;BME280;19045;52.268;10.506;2023-05-12T07:35:06;100888.53;;;18.18;70.99
32638;BME280;19045;52.268;10.506;2023-05-12T07:37:33;100888.28;;;18.33;68.73
32638;BME280;19045;52.268;10.506;2023-05-12T07:40:00;100883.28;;;18.86;70.93
32638;BME280;19045;52.268;10.506;2023-05-12T07:42:28;100892.78;;;19.30;65.69
32638;BME280;19045;52.268;10.506;2023-05-12T07:44:54;100894.72;;;19.56;62.40
32638;BME280;19045;52.268;10.506;2023-05-12T07:47:21;100885.59;;;19.75;61.47
32638;BME280;19045;52.268;10.506;2023-05-12T07:49:48;100888.00;;;19.76;61.85
32638;BME280;19045;52.268;10.506;2023-05-12T07:52:14;100885.47;;;19.80;61.59
32638;BME280;19045;52.268;10.506;2023-05-12T07:54:41;100894.50;;;20.02;60.76
32638;BME280;19045;52.268;10.506;2023-05-12T07:57:08;100890.75;;;20.56;60.17
32638;BME280;19045;52.268;10.506;2023-05-12T07:59:39;100886.94;;;20.97;60.43
32638;BME280;19045;52.268;10.506;2023-05-12T08:02:06;100876.66;;;21.33;59.78
32638;BME280;19045;52.268;10.506;2023-05-12T08:04:33;100874.94;;;21.72;58.18
32638;BME280;19045;52.268;10.506;2023-05-12T08:07:00;100886.16;;;21.44;55.70
32638;BME280;19045;52.268;10.506;2023-05-12T08:09:26;100881.94;;;21.21;57.41
32638;BME280;19045;52.268;10.506;2023-05-12T08:11:53;100884.34;;;21.31;56.88
32638;BME280;19045;52.268;10.506;2023-05-12T08:14:20;100879.59;;;21.54;56.56
32638;BME280;19045;52.268;10.506;2023-05-12T08:16:51;100885.41;;;21.78;55.34
32638;BME280;19045;52.268;10.506;2023-05-12T08:19:17;100886.03;;;21.67;55.39
32638;BME280;19045;52.268;10.506;2023-05-12T08:21:44;100886.66;;;21.46;54.94
32638;BME280;19045;52.268;10.506;2023-05-12T08:24:11;100889.72;;;21.53;55.07
32638;BME280;19045;52.268;10.506;2023-05-12T08:26:37;100889.44;;;21.63;54.60
32638;BME280;19045;52.268;10.506;2023-05-12T08:29:04;100892.00;;;21.60;53.74
32638;BME280;19045;52.268;10.506;2023-05-12T08:32:02;100889.56;;;21.50;53.47
32638;BME280;19045;52.268;10.506;2023-05-12T08:34:41;100890.03;;;21.43;54.42
32638;BME280;19045;52.268;10.506;2023-05-12T08:37:17;100891.97;;;21.51;55.40
32638;BME280;19045;52.268;10.506;2023-05-12T08:40:26;100896.34;;;21.70;54.02
32638;BME280;19045;52.268;10.506;2023-05-12T08:42:55;100876.72;;;21.76;51.61
32638;BME280;19045;52.268;10.506;2023-05-12T08:45:27;100893.50;;;21.92;50.97
32638;BME280;19045;52.268;10.506;2023-05-12T08:47:55;100886.06;;;21.84;50.08
32638;BME280;19045;52.268;10.506;2023-05-12T08:50:24;100892.50;;;21.88;49.97
32638;BME280;19045;52.268;10.506;2023-05-12T08:52:52;100890.56;;;21.80;49.93
32638;BME280;19045;52.268;10.506;2023-05-12T08:55:20;100896.00;;;21.62;51.00
32638;BME280;19045;52.268;10.506;2023-05-12T08:57:47;100888.63;;;21.89;51.38
32638;BME280;19045;52.268;10.506;2023-05-12T09:00:16;100886.09;;;22.09;50.48
32638;BME280;19045;52.268;10.506;2023-05-12T09:02:45;100879.81;;;22.09;50.57
32638;BME280;19045;52.268;10.506;2023-05-12T09:05:13;100882.09;;;22.07;50.03
32638;BME280;19045;52.268;10.506;2023-05-12T09:07:42;100891.88;;;21.91;48.84
32638;BME280;19045;52.268;10.506;2023-05-12T09:10:13;100880.25;;;21.59;50.03
32638;BME280;19045;52.268;10.506;2023-05-12T09:12:41;100898.44;;;21.73;50.45
32638;BME280;19045;52.268;10.506;2023-05-12T09:15:10;100892.50;;;21.88;49.24
32638;BME280;19045;52.268;10.506;2023-05-12T09:17:40;100894.16;;;22.06;49.24
32638;BME280;19045;52.268;10.506;2023-05-12T09:20:07;100899.41;;;22.54;48.22
32638;BME280;19045;52.268;10.506;2023-05-12T09:22:36;100903.59;;;23.74;46.15
32638;BME280;19045;52.268;10.506;2023-05-12T09:25:13;100896.91;;;23.83;46.81
32638;BME280;19045;52.268;10.506;2023-05-12T09:27:41;100902.66;;;23.90;47.19
32638;BME280;19045;52.268;10.506;2023-05-12T09:30:08;100896.50;;;24.67;46.79
32638;BME280;19045;52.268;10.506;2023-05-12T09:32:35;100892.22;;;25.39;45.49
32638;BME280;19045;52.268;10.506;2023-05-12T09:35:02;100893.75;;;25.61;42.19
32638;BME280;19045;52.268;10.506;2023-05-12T09:37:31;100891.06;;;25.77;42.23
32638;BME280;19045;52.268;10.506;2023-05-12T09:40:04;100897.16;;;25.34;42.23
32638;BME280;19045;52.268;10.506;2023-05-12T09:42:32;100899.66;;;25.02;42.80
32638;BME280;19045;52.268;10.506;2023-05-12T09:45:01;100905.66;;;25.41;41.89
32638;BME280;19045;52.268;10.506;2023-05-12T09:47:33;100908.41;;;25.41;40.34
32638;BME280;19045;52.268;10.506;2023-05-12T09:50:00;100896.69;;;25.19;40.86
32638;BME280;19045;52.268;10.506;2023-05-12T09:52:28;100897.72;;;24.91;41.66
32638;BME280;19045;52.268;10.506;2023-05-12T09:55:05;100897.84;;;24.94;42.46
32638;BME280;19045;52.268;10.506;2023-05-12T09:57:35;100896.28;;;24.73;41.63
32638;BME280;19045;52.268;10.506;2023-05-12T10:00:06;100894.75;;;24.51;41.14
32638;BME280;19045;52.268;10.506;2023-05-12T10:02:33;100891.06;;;24.47;41.16
32638;BME280;19045;52.268;10.506;2023-05-12T10:05:04;100892.66;;;24.36;41.19
32638;BME280;19045;52.268;10.506;2023-05-12T10:07:32;100893.25;;;24.21;41.54
32638;BME280;19045;52.268;10.506;2023-05-12T10:10:01;100892.31;;;23.96;40.91
32638;BME280;19045;52.268;10.506;2023-05-12T10:26:22;100891.78;;;24.02;36.69
32638;BME280;19045;52.268;10.506;2023-05-12T10:28:49;100892.72;;;23.86;36.95
32638;BME280;19045;52.268;10.506;2023-05-12T10:31:18;100890.38;;;24.17;37.22
32638;BME280;19045;52.268;10.506;2023-05-12T10:33:55;100893.44;;;23.95;38.55
32638;BME280;19045;52.268;10.506;2023-05-12T10:36:22;100896.75;;;23.30;40.19
32638;BME280;19045;52.268;10.506;2023-05-12T10:38:49;100893.16;;;23.67;39.88
32638;BME280;19045;52.268;10.506;2023-05-12T10:41:27;100887.00;;;23.70;38.81
32638;BME280;19045;52.268;10.506;2023-05-12T10:43:54;100890.06;;;23.48;39.39
32638;BME280;19045;52.268;10.506;2023-05-12T10:46:21;100878.34;;;23.30;39.55
32638;BME280;19045;52.268;10.506;2023-05-12T10:48:51;100883.00;;;23.09;40.10
32638;BME280;19045;52.268;10.506;2023-05-12T10:51:19;100887.66;;;23.08;40.06
32638;BME280;19045;52.268;10.506;2023-05-12T10:53:51;100882.75;;;22.93;40.02
32638;BME280;19045;52.268;10.506;2023-05-12T10:56:25;100886.75;;;22.96;40.51
32638;BME280;19045;52.268;10.506;2023-05-12T10:59:11;100879.03;;;22.89;37.66
32638;BME280;19045;52.268;10.506;2023-05-12T11:01:38;100870.47;;;23.58;36.07
32638;BME280;19045;52.268;10.506;2023-05-12T11:04:10;100861.28;;;23.54;32.84
32638;BME280;19045;52.268;10.506;2023-05-12T11:06:37;100859.66;;;23.32;34.30
32638;BME280;19045;52.268;10.506;2023-05-12T11:09:04;100868.59;;;22.65;34.63
32638;BME280;19045;52.268;10.506;2023-05-12T11:11:33;100873.03;;;22.15;35.58
32638;BME280;19045;52.268;10.506;2023-05-12T11:14:00;100863.88;;;22.11;35.75
32638;BME280;19045;52.268;10.506;2023-05-12T11:16:26;100871.13;;;22.88;35.21
32638;BME280;19045;52.268;10.506;2023-05-12T11:19:00;100864.66;;;23.59;33.18
32638;BME280;19045;52.268;10.506;2023-05-12T11:21:27;100862.56;;;24.39;31.83
32638;BME280;19045;52.268;10.506;2023-05-12T11:23:54;100878.97;;;24.27;31.92
32638;BME280;19045;52.268;10.506;2023-05-12T11:26:21;100875.09;;;23.87;31.02
32638;BME280;19045;52.268;10.506;2023-05-12T11:28:49;100865.00;;;24.20;30.91
32638;BME280;19045;52.268;10.506;2023-05-12T11:31:16;100858.72;;;24.64;30.17
32638;BME280;19045;52.268;10.506;2023-05-12T11:33:44;100855.56;;;25.35;30.22
32638;BME280;19045;52.268;10.506;2023-05-12T11:36:10;100866.44;;;25.68;30.63
32638;BME280;19045;52.268;10.506;2023-05-12T11:38:37;100866.44;;;25.44;30.09
32638;BME280;19045;52.268;10.506;2023-05-12T11:41:04;100868.38;;;25.55;29.09
32638;BME280;19045;52.268;10.506;2023-05-12T11:43:31;100859.81;;;24.96;29.03
32638;BME280;19045;52.268;10.506;2023-05-12T11:45:59;100878.16;;;24.59;29.95
32638;BME280;19045;52.268;10.506;2023-05-12T11:48:32;100875.66;;;24.66;30.94
32638;BME280;19045;52.268;10.506;2023-05-12T11:50:58;100872.19;;;25.02;29.33
32638;BME280;19045;52.268;10.506;2023-05-12T11:53:26;100869.63;;;25.46;28.60
32638;BME280;19045;52.268;10.506;2023-05-12T11:55:54;100862.91;;;25.31;28.99
32638;BME280;19045;52.268;10.506;2023-05-12T11:58:22;100865.09;;;24.56;28.99
32638;BME280;19045;52.268;10.506;2023-05-12T12:00:54;100879.91;;;24.76;29.80
32638;BME280;19045;52.268;10.506;2023-05-12T12:03:23;100863.59;;;25.16;28.94
32638;BME280;19045;52.268;10.506;2023-05-12T12:05:57;100870.09;;;25.48;28.42
32638;BME280;19045;52.268;10.506;2023-05-12T12:08:25;100859.91;;;26.00;27.49
32638;BME280;19045;52.268;10.506;2023-05-12T12:10:51;100868.56;;;25.87;27.64
32638;BME280;19045;52.268;10.506;2023-05-12T12:13:19;100864.06;;;25.18;27.73
32638;BME280;19045;52.268;10.506;2023-05-12T12:15:46;100865.03;;;24.77;28.12
32638;BME280;19045;52.268;10.506;2023-05-12T12:18:12;100892.69;;;24.06;28.70
32638;BME280;19045;52.268;10.506;2023-05-12T12:20:41;100878.38;;;23.59;29.47
32638;BME280;19045;52.268;10.506;2023-05-12T12:23:08;100872.34;;;23.45;29.34
32638;BME280;19045;52.268;10.506;2023-05-12T12:25:35;100894.56;;;23.14;29.51
32638;BME280;19045;52.268;10.506;2023-05-12T12:28:01;100885.31;;;22.90;29.48
32638;BME280;19045;52.268;10.506;2023-05-12T12:30:28;100887.28;;;22.81;29.84
32638;BME280;19045;52.268;10.506;2023-05-12T12:32:55;100880.56;;;23.37;29.70
32638;BME280;19045;52.268;10.506;2023-05-12T12:35:22;100876.19;;;24.15;29.21
32638;BME280;19045;52.268;10.506;2023-05-12T12:37:51;100876.34;;;24.63;28.65
32638;BME280;19045;52.268;10.506;2023-05-12T12:40:18;100878.91;;;24.36;28.61
32638;BME280;19045;52.268;10.506;2023-05-12T12:42:45;100880.78;;;23.61;29.12
32638;BME280;19045;52.268;10.506;2023-05-12T12:45:11;100885.31;;;23.28;29.39
32638;BME280;19045;52.268;10.506;2023-05-12T12:47:38;100877.66;;;23.04;29.57
32638;BME280;19045;52.268;10.506;2023-05-12T12:50:06;100887.28;;;23.18;30.15
32638;BME280;19045;52.268;10.506;2023-05-12T12:52:33;100890.19;;;23.51;30.17